createdAt,value
2023-01-07T00:01:18.873Z,11.70
2023-01-07T00:03:47.040Z,11.80
2023-01-07T00:06:17.028Z,11.80
2023-01-07T00:08:45.954Z,11.80
2023-01-07T00:11:24.252Z,11.80
2023-01-07T00:13:54.168Z,11.80
2023-01-07T00:16:25.449Z,11.80
2023-01-07T00:18:54.067Z,11.80
2023-01-07T00:21:22.678Z,11.80
2023-01-07T00:23:54.446Z,11.80
2023-01-07T00:26:23.091Z,11.80
2023-01-07T00:28:51.611Z,11.80
2023-01-07T00:31:24.504Z,11.80
2023-01-07T00:33:55.108Z,11.80
2023-01-07T00:36:23.738Z,11.80
2023-01-07T00:39:05.878Z,11.80
2023-01-07T00:41:33.318Z,11.90
2023-01-07T00:44:00.475Z,11.80
2023-01-07T00:46:27.683Z,11.80
2023-01-07T00:48:54.711Z,11.90
2023-01-07T00:51:21.962Z,11.90
2023-01-07T00:53:49.181Z,11.90
2023-01-07T00:56:20.227Z,11.80
2023-01-07T00:58:47.358Z,11.80
2023-01-07T01:01:15.210Z,11.80
2023-01-07T01:03:42.460Z,11.80
2023-01-07T01:06:13.703Z,11.80
2023-01-07T01:08:42.933Z,11.80
2023-01-07T01:11:12.008Z,11.80
2023-01-07T01:13:39.774Z,11.80
2023-01-07T01:16:15.636Z,11.80
2023-01-07T01:18:43.673Z,11.80
2023-01-07T01:21:13.610Z,11.80
2023-01-07T01:23:41.177Z,11.80
2023-01-07T01:26:13.872Z,11.80
2023-01-07T01:28:42.022Z,11.80
2023-01-07T01:31:10.756Z,11.80
2023-01-07T01:33:53.985Z,11.80
2023-01-07T01:36:21.320Z,11.80
2023-01-07T01:38:48.529Z,11.80
2023-01-07T01:41:19.084Z,11.80
2023-01-07T01:43:48.371Z,11.80
2023-01-07T01:46:36.553Z,11.80
2023-01-07T01:49:08.619Z,11.80
2023-01-07T01:51:40.351Z,11.80
2023-01-07T01:54:12.060Z,11.80
2023-01-07T01:56:45.127Z,11.80
2023-01-07T01:59:17.695Z,11.80
2023-01-07T02:01:45.628Z,11.80
2023-01-07T02:04:18.789Z,11.80
2023-01-07T02:07:19.443Z,11.80
2023-01-07T02:10:01.892Z,11.80
2023-01-07T02:12:42.560Z,11.80
2023-01-07T02:15:16.529Z,11.80
2023-01-07T02:18:14.696Z,11.80
2023-01-07T02:20:47.983Z,11.80
2023-01-07T02:23:24.006Z,11.80
2023-01-07T02:25:50.925Z,11.80
2023-01-07T02:28:53.197Z,11.80
2023-01-07T02:31:38.805Z,11.80
2023-01-07T02:34:06.003Z,11.80
2023-01-07T02:36:43.468Z,11.80
2023-01-07T02:39:25.619Z,11.80
2023-01-07T02:42:18.549Z,11.80
2023-01-07T02:45:14.313Z,11.80
2023-01-07T02:47:52.326Z,11.90
2023-01-07T02:50:20.181Z,11.80
2023-01-07T02:52:47.511Z,11.80
2023-01-07T02:55:22.069Z,11.80
2023-01-07T02:58:11.090Z,11.70
2023-01-07T03:01:19.656Z,11.70
2023-01-07T03:04:05.334Z,11.70
2023-01-07T03:06:50.427Z,11.70
2023-01-07T03:09:46.580Z,11.70
2023-01-07T03:12:34.823Z,11.70
2023-01-07T03:15:26.542Z,11.70
2023-01-07T03:18:24.299Z,11.70
2023-01-07T03:20:56.806Z,11.70
2023-01-07T03:23:27.550Z,11.60
2023-01-07T03:25:57.901Z,11.60
2023-01-07T03:28:30.364Z,11.60
2023-01-07T03:30:58.610Z,11.60
2023-01-07T03:34:00.312Z,11.60
2023-01-07T03:36:36.181Z,11.60
2023-01-07T03:39:06.553Z,11.60
2023-01-07T03:41:52.258Z,11.50
2023-01-07T03:44:19.334Z,11.50
2023-01-07T03:46:46.820Z,11.50
2023-01-07T03:49:14.536Z,11.50
2023-01-07T03:51:42.314Z,11.50
2023-01-07T03:54:10.379Z,11.50
2023-01-07T03:56:37.352Z,11.40
2023-01-07T03:59:04.359Z,11.40
2023-01-07T04:01:31.855Z,11.40
2023-01-07T04:04:01.269Z,11.30
2023-01-07T04:06:30.059Z,11.30
2023-01-07T04:08:57.102Z,11.30
2023-01-07T04:11:24.383Z,11.30
2023-01-07T04:13:51.500Z,11.40
2023-01-07T04:16:18.652Z,11.40
2023-01-07T04:18:46.534Z,11.40
2023-01-07T04:21:13.518Z,11.40
2023-01-07T04:23:41.412Z,11.40
2023-01-07T04:26:08.631Z,11.40
2023-01-07T04:28:39.279Z,11.40
2023-01-07T04:31:06.552Z,11.40
2023-01-07T04:33:36.036Z,11.40
2023-01-07T04:36:03.805Z,11.40
2023-01-07T04:38:31.133Z,11.40
2023-01-07T04:40:58.386Z,11.30
2023-01-07T04:43:25.444Z,11.30
2023-01-07T04:45:52.437Z,11.20
2023-01-07T04:48:19.438Z,11.30
2023-01-07T04:50:49.393Z,11.30
2023-01-07T04:53:17.252Z,11.30
2023-01-07T04:55:46.572Z,11.30
2023-01-07T04:58:14.145Z,11.30
2023-01-07T05:00:41.528Z,11.30
2023-01-07T05:03:09.480Z,11.30
2023-01-07T05:05:37.418Z,11.30
2023-01-07T05:08:04.917Z,11.40
2023-01-07T05:10:33.049Z,11.30
2023-01-07T05:13:01.107Z,11.40
2023-01-07T05:15:28.139Z,11.40
2023-01-07T05:17:56.114Z,11.40
2023-01-07T05:20:25.490Z,11.30
2023-01-07T05:22:53.390Z,11.40
2023-01-07T05:25:20.475Z,11.40
2023-01-07T05:27:47.529Z,11.40
2023-01-07T05:30:14.933Z,11.40
2023-01-07T05:32:41.907Z,11.40
2023-01-07T05:35:09.305Z,11.40
2023-01-07T05:37:36.670Z,11.30
2023-01-07T05:40:04.604Z,11.20
2023-01-07T05:42:31.655Z,11.20
2023-01-07T05:44:59.797Z,11.20
2023-01-07T05:47:26.817Z,11.20
2023-01-07T05:49:53.834Z,11.20
2023-01-07T05:52:20.916Z,11.20
2023-01-07T05:54:48.170Z,11.20
2023-01-07T05:57:15.126Z,11.20
2023-01-07T05:59:42.125Z,11.20
2023-01-07T06:02:09.023Z,11.30
2023-01-07T06:04:36.035Z,11.30
2023-01-07T06:07:03.149Z,11.30
2023-01-07T06:09:30.242Z,11.20
2023-01-07T06:11:57.517Z,11.20
2023-01-07T06:14:24.458Z,11.20
2023-01-07T06:16:51.460Z,11.20
2023-01-07T06:19:18.515Z,11.20
2023-01-07T06:21:45.510Z,11.10
2023-01-07T06:24:12.486Z,11.10
2023-01-07T06:26:39.476Z,11.10
2023-01-07T06:29:07.181Z,11.10
2023-01-07T06:31:34.269Z,11.10
2023-01-07T06:34:01.247Z,11.00
2023-01-07T06:36:28.311Z,11.00
2023-01-07T06:38:55.378Z,11.10
2023-01-07T06:41:22.471Z,11.10
2023-01-07T06:43:49.422Z,11.10
2023-01-07T06:46:16.731Z,11.20
2023-01-07T06:48:43.811Z,11.20
2023-01-07T06:51:10.787Z,11.20
2023-01-07T06:53:37.885Z,11.20
2023-01-07T06:56:05.194Z,11.20
2023-01-07T06:58:32.198Z,11.20
2023-01-07T07:01:07.376Z,11.20
2023-01-07T07:03:34.474Z,11.10
2023-01-07T07:06:01.535Z,11.10
2023-01-07T07:08:28.661Z,11.10
2023-01-07T07:10:55.892Z,11.10
2023-01-07T07:13:23.026Z,11.10
2023-01-07T07:15:50.131Z,11.10
2023-01-07T07:18:18.187Z,11.10
2023-01-07T07:20:48.180Z,11.10
2023-01-07T07:23:15.406Z,11.10
2023-01-07T07:25:42.715Z,11.00
2023-01-07T07:28:09.888Z,11.00
2023-01-07T07:30:45.579Z,11.00
2023-01-07T07:33:15.076Z,11.10
2023-01-07T07:35:42.489Z,11.10
2023-01-07T07:38:09.786Z,11.10
2023-01-07T07:40:36.929Z,11.10
2023-01-07T07:43:11.325Z,11.10
2023-01-07T07:45:43.427Z,11.10
2023-01-07T07:48:12.958Z,11.00
2023-01-07T07:50:40.002Z,10.90
2023-01-07T07:53:10.107Z,10.90
2023-01-07T07:55:38.469Z,10.90
2023-01-07T07:58:05.612Z,10.90
2023-01-07T08:00:33.046Z,10.90
2023-01-07T08:03:00.419Z,10.90
2023-01-07T08:05:28.319Z,10.80
2023-01-07T08:07:56.054Z,10.80
2023-01-07T08:10:24.051Z,10.80
2023-01-07T08:12:51.062Z,10.80
2023-01-07T08:15:18.286Z,10.80
2023-01-07T08:17:45.259Z,10.80
2023-01-07T08:20:12.594Z,10.80
2023-01-07T08:22:39.640Z,10.80
2023-01-07T08:25:07.234Z,10.90
2023-01-07T08:27:34.539Z,10.90
2023-01-07T08:30:01.543Z,10.90
2023-01-07T08:32:28.525Z,10.90
2023-01-07T08:34:56.138Z,10.90
2023-01-07T08:37:23.140Z,10.90
2023-01-07T08:39:50.108Z,10.90
2023-01-07T08:42:17.037Z,10.90
2023-01-07T08:44:44.060Z,10.90
2023-01-07T08:47:11.092Z,10.90
2023-01-07T08:49:38.114Z,10.90
2023-01-07T08:52:05.518Z,10.90
2023-01-07T08:54:32.571Z,10.90
2023-01-07T08:56:59.656Z,10.90
2023-01-07T08:59:26.783Z,10.90
2023-01-07T09:01:53.923Z,10.90
2023-01-07T09:04:21.166Z,10.90
2023-01-07T09:06:48.127Z,10.90
2023-01-07T09:09:16.657Z,10.90
2023-01-07T09:11:43.816Z,10.90
2023-01-07T09:14:10.769Z,10.90
2023-01-07T09:16:37.710Z,10.90
2023-01-07T09:19:04.976Z,10.90
2023-01-07T09:21:31.868Z,10.90
2023-01-07T09:23:58.874Z,10.90
2023-01-07T09:26:25.860Z,10.90
2023-01-07T09:28:52.831Z,10.90
2023-01-07T09:31:19.899Z,10.90
2023-01-07T09:33:46.888Z,10.90
2023-01-07T09:36:14.086Z,10.90
2023-01-07T09:38:41.243Z,10.80
2023-01-07T09:41:28.761Z,10.80
2023-01-07T09:44:01.993Z,10.80
2023-01-07T09:46:32.360Z,10.80
2023-01-07T09:49:03.776Z,10.80
2023-01-07T09:51:38.268Z,10.90
2023-01-07T09:54:15.075Z,10.90
2023-01-07T09:56:42.286Z,10.90
2023-01-07T09:59:10.962Z,10.90
2023-01-07T10:01:55.323Z,10.80
2023-01-07T10:04:42.113Z,10.80
2023-01-07T10:07:12.198Z,10.80
2023-01-07T10:09:48.232Z,10.80
2023-01-07T10:12:45.896Z,10.80
2023-01-07T10:15:23.779Z,10.90
2023-01-07T10:18:06.879Z,10.90
2023-01-07T10:20:47.355Z,10.90
2023-01-07T10:23:23.986Z,10.90
2023-01-07T10:25:54.553Z,10.90
2023-01-07T10:28:43.095Z,10.90
2023-01-07T10:31:19.461Z,10.90
2023-01-07T10:33:48.643Z,10.80
2023-01-07T10:36:21.757Z,10.90
2023-01-07T10:39:16.986Z,10.90
2023-01-07T10:41:55.656Z,10.90
2023-01-07T10:44:31.324Z,10.90
2023-01-07T10:47:01.315Z,10.90
2023-01-07T10:49:41.742Z,11.10
2023-01-07T10:52:38.266Z,11.00
2023-01-07T10:55:13.248Z,11.10
2023-01-07T10:57:41.039Z,11.10
2023-01-07T11:00:14.348Z,11.00
2023-01-07T11:02:48.945Z,11.00
2023-01-07T11:05:21.057Z,11.00
2023-01-07T11:07:52.476Z,11.00
2023-01-07T11:10:24.175Z,11.10
2023-01-07T11:13:01.575Z,11.10
2023-01-07T11:15:34.378Z,11.00
2023-01-07T11:18:23.677Z,11.10
2023-01-07T11:20:53.142Z,11.10
2023-01-07T11:23:42.811Z,11.10
2023-01-07T11:26:27.100Z,11.20
2023-01-07T11:29:00.121Z,11.20
2023-01-07T11:31:54.899Z,11.20
2023-01-07T11:35:00.970Z,11.20
2023-01-07T11:37:38.514Z,11.30
2023-01-07T11:40:22.318Z,11.30
2023-01-07T11:42:59.620Z,11.30
2023-01-07T11:45:31.031Z,11.40
2023-01-07T11:47:58.024Z,11.40
2023-01-07T11:50:43.494Z,11.40
2023-01-07T11:53:16.311Z,11.40
2023-01-07T11:56:11.270Z,11.40
2023-01-07T11:58:45.036Z,11.40
2023-01-07T12:01:21.858Z,11.40
2023-01-07T12:03:52.026Z,11.40
2023-01-07T12:06:26.154Z,11.40
2023-01-07T12:08:55.219Z,11.40
2023-01-07T12:11:22.754Z,11.40
2023-01-07T12:13:55.378Z,11.40
2023-01-07T12:16:28.171Z,11.30
2023-01-07T12:19:04.165Z,11.40
2023-01-07T12:21:49.436Z,11.40
2023-01-07T12:25:00.600Z,11.50
2023-01-07T12:27:39.687Z,11.50
2023-01-07T12:30:30.517Z,11.40
2023-01-07T12:33:00.207Z,11.50
2023-01-07T12:35:36.923Z,11.40
2023-01-07T12:38:17.906Z,11.50
2023-01-07T12:40:49.815Z,11.50
2023-01-07T12:43:16.714Z,11.60
2023-01-07T12:45:58.245Z,11.60
2023-01-07T12:48:42.747Z,11.50
2023-01-07T12:51:18.435Z,11.60
2023-01-07T12:53:53.368Z,11.60
2023-01-07T12:56:43.487Z,11.60
2023-01-07T12:59:45.960Z,11.70
2023-01-07T13:02:48.658Z,11.60
2023-01-07T13:05:25.950Z,11.60
2023-01-07T13:08:09.229Z,11.60
2023-01-07T13:10:43.147Z,11.60
2023-01-07T13:13:34.437Z,11.60
2023-01-07T13:16:01.778Z,11.60
2023-01-07T13:18:29.867Z,11.60
2023-01-07T13:21:13.039Z,11.60
2023-01-07T13:24:03.535Z,11.60
2023-01-07T13:26:45.685Z,11.50
2023-01-07T13:29:47.045Z,11.60
2023-01-07T13:32:45.515Z,11.60
2023-01-07T13:35:27.843Z,11.60
2023-01-07T13:38:08.062Z,11.60
2023-01-07T13:40:37.813Z,11.50
2023-01-07T13:43:43.192Z,11.60
2023-01-07T13:46:15.824Z,11.50
2023-01-07T13:48:50.062Z,11.50
2023-01-07T13:51:27.647Z,11.50
2023-01-07T13:53:54.979Z,11.50
2023-01-07T13:56:22.592Z,11.50
2023-01-07T13:58:55.329Z,11.50
2023-01-07T14:01:35.914Z,11.50
2023-01-07T14:04:08.650Z,11.50
2023-01-07T14:06:43.164Z,11.60
2023-01-07T14:09:16.017Z,11.60
2023-01-07T14:11:51.580Z,11.60
2023-01-07T14:14:38.315Z,11.60
2023-01-07T14:17:23.201Z,11.60
2023-01-07T14:20:12.993Z,11.60
2023-01-07T14:22:55.712Z,11.60
2023-01-07T14:25:56.310Z,11.60
2023-01-07T14:28:44.655Z,11.60
2023-01-07T14:31:26.560Z,11.60
2023-01-07T14:34:01.598Z,11.60
2023-01-07T14:37:01.268Z,11.50
2023-01-07T14:39:31.408Z,11.50
2023-01-07T14:42:20.363Z,11.50
2023-01-07T14:44:51.324Z,11.50
2023-01-07T14:47:52.623Z,11.50
2023-01-07T14:50:55.232Z,11.50
2023-01-07T14:53:46.677Z,11.40
2023-01-07T14:56:52.168Z,11.40
2023-01-07T14:59:19.151Z,11.40
2023-01-07T15:02:13.503Z,11.40
2023-01-07T15:05:00.993Z,11.40
2023-01-07T15:07:34.028Z,11.30
2023-01-07T15:10:27.436Z,11.30
2023-01-07T15:13:15.314Z,11.30
2023-01-07T15:16:04.467Z,11.30
2023-01-07T15:18:42.111Z,11.30
2023-01-07T15:21:28.003Z,11.30
2023-01-07T15:24:16.444Z,11.30
2023-01-07T15:26:48.420Z,11.30
2023-01-07T15:29:38.944Z,11.30
2023-01-07T15:32:17.751Z,11.30
2023-01-07T15:34:44.834Z,11.30
2023-01-07T15:37:14.215Z,11.30
2023-01-07T15:39:52.780Z,11.40
2023-01-07T15:42:25.861Z,11.40
2023-01-07T15:44:56.149Z,11.40
2023-01-07T15:47:34.845Z,11.40
2023-01-07T15:50:23.307Z,11.40
2023-01-07T15:52:56.661Z,11.40
2023-01-07T15:55:28.672Z,11.40
2023-01-07T15:58:11.281Z,11.40
2023-01-07T16:00:38.752Z,11.40
2023-01-07T16:03:06.522Z,11.50
2023-01-07T16:05:37.554Z,11.50
2023-01-07T16:08:05.167Z,11.50
2023-01-07T16:10:35.788Z,11.50
2023-01-07T16:13:16.175Z,11.50
2023-01-07T16:15:43.115Z,11.50
2023-01-07T16:18:10.072Z,11.50
2023-01-07T16:20:40.920Z,11.50
2023-01-07T16:23:20.253Z,11.50
2023-01-07T16:25:55.423Z,11.50
2023-01-07T16:28:27.296Z,11.50
2023-01-07T16:30:55.950Z,11.40
2023-01-07T16:33:26.763Z,11.40
2023-01-07T16:35:57.809Z,11.40
2023-01-07T16:38:25.474Z,11.40
2023-01-07T16:40:53.430Z,11.40
2023-01-07T16:43:43.428Z,11.40
2023-01-07T16:46:16.641Z,11.40
2023-01-07T16:48:43.782Z,11.40
2023-01-07T16:51:37.641Z,11.50
2023-01-07T16:54:31.169Z,11.50
2023-01-07T16:57:04.253Z,11.50
2023-01-07T16:59:38.215Z,11.50
2023-01-07T17:02:27.139Z,11.40
2023-01-07T17:04:56.733Z,11.40
2023-01-07T17:07:28.485Z,11.40
2023-01-07T17:09:57.888Z,11.50
2023-01-07T17:12:35.258Z,11.50
2023-01-07T17:15:02.876Z,11.50
2023-01-07T17:17:32.377Z,11.50
2023-01-07T17:20:19.006Z,11.50
2023-01-07T17:22:47.241Z,11.40
2023-01-07T17:25:22.580Z,11.50
2023-01-07T17:27:56.605Z,11.50
2023-01-07T17:30:31.529Z,11.40
2023-01-07T17:32:58.519Z,11.50
2023-01-07T17:35:26.118Z,11.50
2023-01-07T17:37:54.348Z,11.50
2023-01-07T17:40:21.360Z,11.50
2023-01-07T17:43:08.237Z,11.50
2023-01-07T17:45:35.737Z,11.50
2023-01-07T17:48:02.815Z,11.50
2023-01-07T17:50:36.318Z,11.50
2023-01-07T17:53:04.515Z,11.50
2023-01-07T17:58:28.967Z,11.50
2023-01-07T18:00:57.694Z,11.50
2023-01-07T18:03:25.392Z,11.50
2023-01-07T18:05:56.858Z,11.50
2023-01-07T18:08:24.097Z,11.50
2023-01-07T18:11:13.839Z,11.50
2023-01-07T18:13:41.933Z,11.50
2023-01-07T18:16:12.593Z,11.50
2023-01-07T18:18:39.721Z,11.50
2023-01-07T18:21:06.742Z,11.50
2023-01-07T18:23:33.757Z,11.50
2023-01-07T18:26:01.893Z,11.50
2023-01-07T18:28:31.268Z,11.60
2023-01-07T18:30:58.232Z,11.60
2023-01-07T18:33:25.539Z,11.60
2023-01-07T18:35:52.561Z,11.50
2023-01-07T18:38:19.505Z,11.60
2023-01-07T18:40:46.507Z,11.60
2023-01-07T18:43:15.289Z,11.60
2023-01-07T18:45:47.059Z,11.60
2023-01-07T18:48:16.118Z,11.60
2023-01-07T18:50:45.846Z,11.60
2023-01-07T18:53:13.808Z,11.60
2023-01-07T18:55:42.152Z,11.60
2023-01-07T18:58:14.364Z,11.60
2023-01-07T19:00:42.130Z,11.60
2023-01-07T19:03:10.670Z,11.60
2023-01-07T19:05:40.569Z,11.60
2023-01-07T19:08:07.596Z,11.60
2023-01-07T19:10:34.791Z,11.60
2023-01-07T19:13:01.864Z,11.60
2023-01-07T19:15:33.813Z,11.60
2023-01-07T19:18:01.921Z,11.60
2023-01-07T19:20:28.995Z,11.60
2023-01-07T19:23:00.301Z,11.60
2023-01-07T19:25:28.886Z,11.60
2023-01-07T19:27:56.034Z,11.60
2023-01-07T19:30:23.550Z,11.60
2023-01-07T19:32:51.141Z,11.60
2023-01-07T19:35:18.333Z,11.60
2023-01-07T19:37:45.251Z,11.60
2023-01-07T19:40:13.429Z,11.60
2023-01-07T19:42:40.416Z,11.60
2023-01-07T19:45:07.871Z,11.50
2023-01-07T19:47:35.387Z,11.50
2023-01-07T19:50:02.472Z,11.50
2023-01-07T19:52:29.485Z,11.60
2023-01-07T19:54:56.630Z,11.60
2023-01-07T19:57:23.625Z,11.50
2023-01-07T19:59:50.655Z,11.50
2023-01-07T20:02:17.960Z,11.50
2023-01-07T20:04:45.108Z,11.50
2023-01-07T20:07:12.119Z,11.50
2023-01-07T20:09:40.554Z,11.50
2023-01-07T20:12:07.850Z,11.50
2023-01-07T20:14:34.869Z,11.50
2023-01-07T20:17:01.940Z,11.50
2023-01-07T20:19:30.297Z,11.50
2023-01-07T20:21:57.419Z,11.50
2023-01-07T20:24:24.475Z,11.60
2023-01-07T20:26:53.203Z,11.50
2023-01-07T20:29:21.622Z,11.60
2023-01-07T20:31:48.655Z,11.60
2023-01-07T20:34:15.758Z,11.60
2023-01-07T20:36:42.735Z,11.60
2023-01-07T20:39:09.729Z,11.60
2023-01-07T20:41:38.829Z,11.60
2023-01-07T20:44:08.739Z,11.60
2023-01-07T20:46:35.732Z,11.60
2023-01-07T20:49:02.964Z,11.60
2023-01-07T20:51:30.102Z,11.60
2023-01-07T20:53:57.806Z,11.60
2023-01-07T20:56:26.783Z,11.60
2023-01-07T20:58:53.819Z,11.50
2023-01-07T21:01:22.541Z,11.50
2023-01-07T21:03:50.310Z,11.50
2023-01-07T21:06:19.823Z,11.50
2023-01-07T21:08:48.005Z,11.50
2023-01-07T21:11:18.700Z,11.50
2023-01-07T21:13:46.844Z,11.50
2023-01-07T21:16:15.058Z,11.50
2023-01-07T21:18:42.950Z,11.50
2023-01-07T21:21:21.206Z,11.50
2023-01-07T21:23:49.414Z,11.50
2023-01-07T21:26:18.119Z,11.50
2023-01-07T21:28:45.691Z,11.50
2023-01-07T21:31:14.110Z,11.50
2023-01-07T21:33:41.820Z,11.50
2023-01-07T21:36:15.400Z,11.50
2023-01-07T21:38:42.935Z,11.50
2023-01-07T21:41:13.101Z,11.50
2023-01-07T21:43:43.598Z,11.50
2023-01-07T21:46:11.156Z,11.50
2023-01-07T21:48:40.296Z,11.50
2023-01-07T21:51:17.854Z,11.50
2023-01-07T21:53:45.206Z,11.50
2023-01-07T21:56:17.437Z,11.50
2023-01-07T21:58:45.905Z,11.50
2023-01-07T22:01:14.199Z,11.50
2023-01-07T22:03:47.701Z,11.50
2023-01-07T22:06:21.222Z,11.40
2023-01-07T22:08:49.439Z,11.40
2023-01-07T22:11:17.933Z,11.40
2023-01-07T22:13:48.760Z,11.50
2023-01-07T22:16:15.710Z,11.50
2023-01-07T22:18:42.759Z,11.50
2023-01-07T22:21:09.803Z,11.50
2023-01-07T22:23:37.819Z,11.50
2023-01-07T22:26:06.698Z,11.40
2023-01-07T22:28:54.353Z,11.40
2023-01-07T22:31:22.769Z,11.40
2023-01-07T22:33:50.150Z,11.40
2023-01-07T22:36:38.209Z,11.40
2023-01-07T22:39:17.228Z,11.40
2023-01-07T22:41:45.082Z,11.40
2023-01-07T22:44:24.996Z,11.30
2023-01-07T22:46:53.324Z,11.30
2023-01-07T22:49:23.604Z,11.30
2023-01-07T22:51:50.611Z,11.30
2023-01-07T22:54:18.200Z,11.40
2023-01-07T22:56:45.902Z,11.40
2023-01-07T22:59:12.897Z,11.40
2023-01-07T23:01:40.152Z,11.40
2023-01-07T23:04:07.343Z,11.40
2023-01-07T23:06:34.384Z,11.40
2023-01-07T23:09:01.473Z,11.40
2023-01-07T23:11:47.015Z,11.40
2023-01-07T23:14:18.894Z,11.40
2023-01-07T23:16:46.420Z,11.40
2023-01-07T23:19:14.046Z,11.40
2023-01-07T23:21:43.435Z,11.40
2023-01-07T23:24:11.684Z,11.40
2023-01-07T23:26:39.436Z,11.40
2023-01-07T23:29:07.388Z,11.40
2023-01-07T23:31:35.396Z,11.40
2023-01-07T23:34:04.136Z,11.40
2023-01-07T23:36:31.285Z,11.50
2023-01-07T23:38:58.237Z,11.50
2023-01-07T23:41:25.289Z,11.50
2023-01-07T23:43:52.310Z,11.50
2023-01-07T23:46:19.254Z,11.40
2023-01-07T23:48:46.512Z,11.40
2023-01-07T23:51:19.402Z,11.40
2023-01-07T23:53:47.126Z,11.40
2023-01-07T23:56:14.905Z,11.40
2023-01-07T23:58:41.851Z,11.40
